Time;durP1;ratioP1;P1;durP2;ratioP2;P2;SDS_P1;SDS_P2;PMS_P1;PMS_P2;Temp;Humidity;BMP_temperature;BMP_pressure;BME280_temperature;BME280_humidity;BME280_pressure;Samples;Min_cycle;Max_cycle;Signal;HPM_P1;HPM_P2
2022/03/03 00:00:08;;;;;;;;;39.67;30.00;;;;;;;;5162221;27;13731;-75
2022/03/03 00:02:33;;;;;;;;;32.00;24.33;;;;;;;;5162932;27;13541;-76
2022/03/03 00:04:59;;;;;;;;;25.67;25.67;;;;;;;;5162671;27;12291;-74
2022/03/03 00:07:25;;;;;;;;;29.67;29.00;;;;;;;;5162501;27;13541;-77
2022/03/03 00:09:50;;;;;;;;;40.00;34.00;;;;;;;;5161740;27;11669;-77
2022/03/03 00:12:16;;;;;;;;;32.00;27.67;;;;;;;;5162478;27;12230;-74
2022/03/03 00:14:41;;;;;;;;;35.33;29.00;;;;;;;;5162140;27;13242;-75
2022/03/03 00:17:07;;;;;;;;;33.67;32.00;;;;;;;;5161697;27;11389;-74
2022/03/03 00:19:33;;;;;;;;;33.33;29.67;;;;;;;;5161729;27;11712;-75
2022/03/03 00:21:58;;;;;;;;;35.33;30.00;;;;;;;;5162057;27;12242;-76
2022/03/03 00:24:23;;;;;;;;;31.33;24.33;;;;;;;;5162505;27;12268;-75
2022/03/03 00:26:49;;;;;;;;;45.33;31.33;;;;;;;;5161903;27;12252;-75
2022/03/03 00:29:14;;;;;;;;;35.00;29.33;;;;;;;;5162430;27;10774;-76
2022/03/03 00:31:39;;;;;;;;;37.67;30.33;;;;;;;;5162126;27;12211;-76
2022/03/03 00:34:05;;;;;;;;;29.33;25.00;;;;;;;;5161963;27;13083;-76
2022/03/03 00:36:34;;;;;;;;;32.00;27.33;;;;;;;;5161402;27;13245;-76
2022/03/03 00:38:59;;;;;;;;;41.00;31.67;;;;;;;;5161676;27;13311;-74
2022/03/03 00:41:24;;;;;;;;;30.33;29.00;;;;;;;;5142824;27;13839;-79
2022/03/03 00:43:49;;;;;;;;;29.67;25.33;;;;;;;;5161761;27;14534;-79
2022/03/03 00:46:15;;;;;;;;;33.67;30.00;;;;;;;;5161791;27;13773;-78
2022/03/03 00:48:40;;;;;;;;;36.00;32.33;;;;;;;;5161185;27;14481;-77
2022/03/03 00:51:07;;;;;;;;;29.00;25.33;;;;;;;;5161460;27;11385;-78
2022/03/03 00:53:36;;;;;;;;;28.67;25.33;;;;;;;;5161806;27;10796;-79
2022/03/03 00:56:01;;;;;;;;;32.00;26.00;;;;;;;;5161236;27;9026;-80
2022/03/03 00:58:27;;;;;;;;;39.33;32.00;;;;;;;;5161189;27;13582;-78
2022/03/03 01:00:52;;;;;;;;;28.33;26.00;;;;;;;;5159985;27;11385;-77
2022/03/03 01:03:17;;;;;;;;;33.67;28.00;;;;;;;;5162243;27;12167;-79
2022/03/03 01:05:42;;;;;;;;;28.33;25.67;;;;;;;;5161933;27;12360;-79
2022/03/03 01:08:10;;;;;;;;;31.00;27.33;;;;;;;;5161871;27;13730;-79
2022/03/03 01:10:36;;;;;;;;;36.33;32.33;;;;;;;;5161127;27;13722;-77
2022/03/03 01:13:01;;;;;;;;;27.00;21.33;;;;;;;;5161032;27;11891;-78
2022/03/03 01:15:26;;;;;;;;;37.67;28.33;;;;;;;;5160866;27;13591;-78
2022/03/03 01:17:51;;;;;;;;;33.33;29.00;;;;;;;;5161116;27;12399;-78
2022/03/03 01:20:17;;;;;;;;;29.00;27.67;;;;;;;;5161478;27;11360;-78
2022/03/03 01:22:42;;;;;;;;;28.00;28.00;;;;;;;;5161801;27;13354;-78
2022/03/03 01:25:07;;;;;;;;;32.67;28.33;;;;;;;;5161459;27;11575;-77
2022/03/03 01:27:33;;;;;;;;;29.00;27.33;;;;;;;;5161969;27;13573;-78
2022/03/03 01:29:58;;;;;;;;;29.67;25.33;;;;;;;;5161436;27;12331;-78
2022/03/03 01:32:23;;;;;;;;;26.67;24.33;;;;;;;;5161235;27;10183;-78
2022/03/03 01:34:49;;;;;;;;;34.33;26.33;;;;;;;;5161313;27;9484;-79
2022/03/03 01:37:14;;;;;;;;;39.00;33.33;;;;;;;;5160587;27;12632;-80
2022/03/03 01:39:39;;;;;;;;;31.00;28.00;;;;;;;;5161307;27;11422;-78
2022/03/03 01:42:05;;;;;;;;;35.33;29.33;;;;;;;;5160334;27;12567;-79
2022/03/03 01:44:30;;;;;;;;;30.67;29.67;;;;;;;;5161110;27;11555;-78
2022/03/03 01:46:57;;;;;;;;;29.67;23.67;;;;;;;;5161092;27;12731;-79
2022/03/03 01:49:23;;;;;;;;;30.33;30.00;;;;;;;;5161746;27;10504;-77
2022/03/03 01:51:48;;;;;;;;;32.33;32.33;;;;;;;;5161260;27;13324;-79
2022/03/03 01:54:14;;;;;;;;;30.67;25.67;;;;;;;;5160936;27;11590;-78
2022/03/03 01:56:40;;;;;;;;;34.67;25.00;;;;;;;;5161041;27;12366;-77
2022/03/03 01:59:06;;;;;;;;;30.67;26.33;;;;;;;;5160160;27;11669;-78
2022/03/03 02:01:32;;;;;;;;;27.00;25.00;;;;;;;;5161142;27;11886;-78
2022/03/03 02:03:57;;;;;;;;;22.00;22.00;;;;;;;;5141703;27;13649;-78
2022/03/03 02:06:23;;;;;;;;;30.00;24.00;;;;;;;;5161003;27;8776;-78
2022/03/03 02:08:48;;;;;;;;;31.67;25.67;;;;;;;;5160609;27;10888;-78
2022/03/03 02:11:14;;;;;;;;;33.25;28.00;;;;;;;;5160255;27;11540;-79
2022/03/03 02:13:39;;;;;;;;;27.33;23.33;;;;;;;;5160551;27;11960;-76
2022/03/03 02:16:06;;;;;;;;;27.33;23.33;;;;;;;;5159642;27;13418;-76
2022/03/03 02:18:32;;;;;;;;;32.33;24.33;;;;;;;;5160645;27;8784;-77
2022/03/03 02:20:57;;;;;;;;;24.00;24.00;;;;;;;;5160792;27;10647;-77
2022/03/03 02:23:22;;;;;;;;;33.00;28.67;;;;;;;;5160207;27;13273;-78
2022/03/03 02:25:47;;;;;;;;;21.25;12.25;;;;;;;;5160359;27;13435;-77
2022/03/03 02:28:13;;;;;;;;;29.33;23.33;;;;;;;;5160057;27;13758;-76
2022/03/03 02:30:38;;;;;;;;;33.67;25.00;;;;;;;;5160492;27;9533;-77
2022/03/03 02:33:03;;;;;;;;;23.75;21.00;;;;;;;;5160341;27;13223;-77
2022/03/03 02:35:29;;;;;;;;;28.67;25.67;;;;;;;;5159970;27;12463;-78
2022/03/03 02:37:54;;;;;;;;;31.00;28.00;;;;;;;;5159060;27;11456;-77
2022/03/03 02:40:20;;;;;;;;;28.00;27.00;;;;;;;;5159613;27;13303;-78
2022/03/03 02:42:49;;;;;;;;;34.00;31.00;;;;;;;;5159730;27;10581;-78
2022/03/03 02:45:14;;;;;;;;;36.00;29.25;;;;;;;;5159966;27;10476;-77
2022/03/03 02:47:41;;;;;;;;;44.50;36.00;;;;;;;;5159401;27;12544;-77
2022/03/03 02:50:06;;;;;;;;;34.00;26.25;;;;;;;;5160780;27;13399;-76
2022/03/03 02:52:31;;;;;;;;;40.50;28.25;;;;;;;;5159718;27;13804;-76
2022/03/03 02:54:57;;;;;;;;;36.75;32.50;;;;;;;;5160193;27;12195;-78
2022/03/03 03:00:06;;;;;;;;;35.00;33.75;;;;;;;;5159552;27;13425;-78
2022/03/03 03:02:32;;;;;;;;;41.00;37.50;;;;;;;;5159868;27;13442;-77
2022/03/03 03:04:57;;;;;;;;;46.50;36.25;;;;;;;;5159472;27;13222;-77
2022/03/03 03:07:22;;;;;;;;;35.75;32.00;;;;;;;;5159506;27;11709;-78
2022/03/03 03:09:48;;;;;;;;;45.50;37.50;;;;;;;;5158955;27;13411;-77
2022/03/03 03:12:13;;;;;;;;;38.50;33.25;;;;;;;;5159248;27;13314;-78
2022/03/03 03:14:38;;;;;;;;;39.25;33.50;;;;;;;;5159510;27;13237;-77
2022/03/03 03:17:03;;;;;;;;;41.25;36.25;;;;;;;;5159126;27;11644;-78
2022/03/03 03:19:29;;;;;;;;;43.25;35.75;;;;;;;;5159189;27;14019;-77
2022/03/03 03:21:54;;;;;;;;;41.00;33.25;;;;;;;;5159301;27;10405;-76
2022/03/03 03:24:19;;;;;;;;;41.00;35.75;;;;;;;;5160580;27;10923;-77
2022/03/03 03:26:44;;;;;;;;;39.75;34.00;;;;;;;;5163289;27;8802;-77
2022/03/03 03:29:10;;;;;;;;;46.00;40.75;;;;;;;;5162787;27;13275;-78
2022/03/03 03:31:35;;;;;;;;;43.00;39.00;;;;;;;;5163573;27;14299;-78
2022/03/03 03:34:01;;;;;;;;;39.50;34.00;;;;;;;;5162965;27;12453;-77
2022/03/03 03:36:26;;;;;;;;;44.50;39.00;;;;;;;;5162567;27;12737;-77
2022/03/03 03:38:51;;;;;;;;;47.00;36.00;;;;;;;;5163508;27;10625;-78
2022/03/03 03:41:16;;;;;;;;;43.50;38.75;;;;;;;;5163289;27;10530;-77
2022/03/03 03:43:42;;;;;;;;;29.50;25.00;;;;;;;;5163768;27;11624;-77
2022/03/03 03:46:07;;;;;;;;;47.25;38.00;;;;;;;;5163102;27;13220;-78
2022/03/03 03:48:32;;;;;;;;;54.00;42.00;;;;;;;;5163252;27;12598;-78
2022/03/03 03:50:58;;;;;;;;;33.75;31.00;;;;;;;;5163179;27;12805;-78
2022/03/03 03:53:23;;;;;;;;;42.25;34.00;;;;;;;;5163342;27;12530;-78
2022/03/03 03:55:49;;;;;;;;;46.25;36.50;;;;;;;;5162269;27;11406;-78
2022/03/03 03:58:15;;;;;;;;;45.50;39.50;;;;;;;;5162596;27;11692;-78
2022/03/03 04:00:40;;;;;;;;;30.00;28.50;;;;;;;;5162547;27;10672;-78
2022/03/03 04:03:08;;;;;;;;;57.50;39.00;;;;;;;;5161585;27;12372;-78
2022/03/03 04:05:33;;;;;;;;;43.00;38.50;;;;;;;;5162254;27;13343;-78
2022/03/03 04:07:58;;;;;;;;;39.00;34.50;;;;;;;;5161867;27;13275;-78
2022/03/03 04:10:24;;;;;;;;;45.25;34.50;;;;;;;;5162673;27;11709;-79
2022/03/03 04:12:49;;;;;;;;;42.25;41.00;;;;;;;;5162114;27;11426;-78
2022/03/03 04:15:14;;;;;;;;;42.50;36.75;;;;;;;;5161713;27;12687;-78
2022/03/03 04:17:40;;;;;;;;;43.75;36.00;;;;;;;;5143054;27;13470;-79
2022/03/03 04:20:06;;;;;;;;;28.50;28.50;;;;;;;;5162142;27;11385;-79
2022/03/03 04:22:34;;;;;;;;;40.50;35.75;;;;;;;;5162927;27;13692;-78
2022/03/03 04:24:59;;;;;;;;;35.25;29.50;;;;;;;;5162066;27;13381;-78
2022/03/03 04:27:25;;;;;;;;;34.25;34.00;;;;;;;;5162033;27;13238;-78
2022/03/03 04:29:50;;;;;;;;;31.00;27.00;;;;;;;;5161543;27;12227;-79
2022/03/03 04:32:15;;;;;;;;;34.75;29.50;;;;;;;;5142545;27;13734;-79
2022/03/03 04:34:40;;;;;;;;;32.00;29.50;;;;;;;;5162109;27;11947;-78
2022/03/03 04:37:06;;;;;;;;;31.25;29.00;;;;;;;;5162484;27;9491;-83
2022/03/03 04:39:31;;;;;;;;;37.00;30.75;;;;;;;;5162899;27;11423;-87
2022/03/03 04:41:59;;;;;;;;;32.00;28.00;;;;;;;;5162714;27;12385;-86
2022/03/03 04:44:24;;;;;;;;;35.75;28.50;;;;;;;;5162772;27;12290;-86
2022/03/03 04:46:50;;;;;;;;;27.50;26.25;;;;;;;;5182301;27;11436;-87
2022/03/03 04:49:15;;;;;;;;;38.00;28.00;;;;;;;;5181420;27;13530;-86
2022/03/03 04:51:40;;;;;;;;;31.75;26.50;;;;;;;;5181659;27;14860;-82
2022/03/03 04:54:07;;;;;;;;;38.00;31.25;;;;;;;;5164366;27;11795;-80
2022/03/03 04:56:32;;;;;;;;;39.00;29.50;;;;;;;;5183444;27;12259;-80
2022/03/03 04:58:58;;;;;;;;;34.00;27.25;;;;;;;;5164086;27;13968;-80
2022/03/03 05:01:24;;;;;;;;;28.00;24.25;;;;;;;;5183105;27;11614;-80
2022/03/03 05:03:49;;;;;;;;;32.50;27.75;;;;;;;;5180481;27;10618;-79
2022/03/03 05:06:17;;;;;;;;;39.50;29.75;;;;;;;;5159744;27;15553;-77
2022/03/03 05:08:42;;;;;;;;;38.50;33.00;;;;;;;;5183588;27;8875;-80
2022/03/03 05:11:08;;;;;;;;;29.50;25.00;;;;;;;;5189635;27;12181;-79
2022/03/03 05:13:33;;;;;;;;;33.75;27.75;;;;;;;;5198725;27;10512;-80
2022/03/03 05:15:59;;;;;;;;;35.50;30.75;;;;;;;;5198400;27;13629;-79
2022/03/03 05:18:24;;;;;;;;;28.75;22.00;;;;;;;;5177600;27;13576;-78
2022/03/03 05:20:49;;;;;;;;;27.50;25.25;;;;;;;;5196027;27;13423;-79
2022/03/03 05:23:14;;;;;;;;;33.75;28.25;;;;;;;;5173340;27;13758;-78
2022/03/03 05:25:40;;;;;;;;;32.25;29.00;;;;;;;;5178639;27;12235;-78
2022/03/03 05:28:05;;;;;;;;;30.25;25.00;;;;;;;;5163009;27;13295;-81
2022/03/03 05:30:30;;;;;;;;;23.50;23.50;;;;;;;;5182717;27;8777;-78
2022/03/03 05:32:57;;;;;;;;;22.00;20.00;;;;;;;;5162237;27;16498;-78
2022/03/03 05:35:23;;;;;;;;;28.25;23.50;;;;;;;;5180306;27;11476;-78
2022/03/03 05:37:48;;;;;;;;;35.50;27.75;;;;;;;;5160789;27;13527;-77
2022/03/03 05:40:14;;;;;;;;;31.00;27.75;;;;;;;;5180409;27;13855;-77
2022/03/03 05:42:40;;;;;;;;;25.75;21.50;;;;;;;;5161430;27;11058;-79
2022/03/03 05:45:05;;;;;;;;;22.25;19.00;;;;;;;;5181767;27;13582;-82
2022/03/03 05:47:31;;;;;;;;;32.25;25.00;;;;;;;;5180905;27;12264;-80
2022/03/03 05:49:56;;;;;;;;;30.00;25.00;;;;;;;;5181685;27;10706;-81
2022/03/03 05:52:22;;;;;;;;;27.00;24.75;;;;;;;;5179688;27;8794;-80
2022/03/03 05:54:47;;;;;;;;;31.00;23.00;;;;;;;;5181935;27;13250;-86
2022/03/03 05:57:17;;;;;;;;;27.50;20.75;;;;;;;;5181924;27;15054;-78
2022/03/03 05:59:45;;;;;;;;;26.00;23.25;;;;;;;;5179200;27;13611;-78
2022/03/03 06:02:11;;;;;;;;;34.25;28.00;;;;;;;;5180962;27;10425;-75
2022/03/03 06:04:38;;;;;;;;;32.00;27.00;;;;;;;;5180416;27;13392;-76
2022/03/03 06:07:08;;;;;;;;;32.25;29.25;;;;;;;;5178568;27;10895;-77
2022/03/03 06:09:34;;;;;;;;;30.00;26.00;;;;;;;;5181361;27;10627;-77
2022/03/03 06:12:03;;;;;;;;;30.25;24.00;;;;;;;;5181447;27;11456;-76
2022/03/03 06:14:39;;;;;;;;;27.25;23.00;;;;;;;;5180880;27;9620;-77
2022/03/03 06:17:04;;;;;;;;;30.25;27.50;;;;;;;;5178682;27;10706;-78
2022/03/03 06:19:30;;;;;;;;;27.75;25.00;;;;;;;;5181088;27;13894;-76
2022/03/03 06:21:55;;;;;;;;;32.00;23.50;;;;;;;;5181148;27;13533;-77
2022/03/03 06:24:20;;;;;;;;;36.25;27.25;;;;;;;;5180529;27;13629;-76
2022/03/03 06:26:47;;;;;;;;;23.75;21.00;;;;;;;;5180102;27;11449;-75
2022/03/03 06:29:13;;;;;;;;;27.75;21.75;;;;;;;;5177026;27;13307;-76
2022/03/03 06:31:38;;;;;;;;;25.75;23.75;;;;;;;;5177075;27;11367;-77
2022/03/03 06:34:03;;;;;;;;;28.00;23.00;;;;;;;;5179661;27;8825;-76
2022/03/03 06:36:28;;;;;;;;;30.00;25.50;;;;;;;;5159963;27;12012;-77
2022/03/03 06:38:56;;;;;;;;;25.50;22.75;;;;;;;;5180948;27;13452;-76
2022/03/03 06:41:23;;;;;;;;;30.75;25.00;;;;;;;;5172037;27;13319;-78
2022/03/03 06:43:49;;;;;;;;;33.00;28.00;;;;;;;;5160327;27;13968;-76
2022/03/03 06:46:18;;;;;;;;;35.75;25.00;;;;;;;;5159941;27;12865;-76
2022/03/03 06:48:43;;;;;;;;;29.50;26.25;;;;;;;;5178388;27;12118;-76
2022/03/03 06:51:12;;;;;;;;;26.75;24.50;;;;;;;;5179496;27;13896;-76
2022/03/03 06:53:39;;;;;;;;;27.00;22.00;;;;;;;;5177127;27;12789;-75
2022/03/03 06:56:09;;;;;;;;;29.75;24.75;;;;;;;;5179794;27;11552;-76
2022/03/03 06:58:35;;;;;;;;;36.00;31.00;;;;;;;;5180868;27;13051;-77
2022/03/03 07:01:03;;;;;;;;;26.00;23.50;;;;;;;;5165323;27;15686;-82
2022/03/03 07:03:29;;;;;;;;;22.00;22.00;;;;;;;;5184928;27;14430;-76
2022/03/03 07:05:55;;;;;;;;;31.25;25.25;;;;;;;;5165038;27;13529;-86
2022/03/03 07:08:21;;;;;;;;;30.00;27.75;;;;;;;;5184400;27;13306;-77
2022/03/03 07:10:47;;;;;;;;;31.75;28.00;;;;;;;;5184108;27;10689;-76
2022/03/03 07:13:14;;;;;;;;;30.50;27.75;;;;;;;;5183379;27;11540;-80
2022/03/03 07:15:44;;;;;;;;;27.75;26.00;;;;;;;;5183859;27;11598;-77
2022/03/03 07:18:13;;;;;;;;;38.00;30.50;;;;;;;;5162774;27;15360;-76
2022/03/03 07:20:40;;;;;;;;;33.00;27.00;;;;;;;;5185538;27;13375;-84
2022/03/03 07:23:24;;;;;;;;;29.00;27.00;;;;;;;;5184204;27;13707;-81
2022/03/03 07:25:54;;;;;;;;;31.00;27.00;;;;;;;;5183175;27;9516;-76
2022/03/03 07:28:20;;;;;;;;;32.75;27.75;;;;;;;;5180383;27;8897;-77
2022/03/03 07:30:48;;;;;;;;;39.25;30.50;;;;;;;;5163330;27;11599;-75
2022/03/03 07:33:38;;;;;;;;;30.25;23.75;;;;;;;;5182376;27;12400;-77
2022/03/03 07:36:06;;;;;;;;;37.00;31.75;;;;;;;;5165933;27;12540;-77
2022/03/03 07:38:36;;;;;;;;;27.75;21.00;;;;;;;;5164723;27;13780;-76
2022/03/03 07:41:02;;;;;;;;;31.75;25.00;;;;;;;;5183294;27;13309;-76
2022/03/03 07:43:27;;;;;;;;;35.75;27.75;;;;;;;;5183375;27;10573;-76
2022/03/03 07:45:53;;;;;;;;;40.00;31.50;;;;;;;;5182580;27;11384;-75
2022/03/03 07:48:21;;;;;;;;;27.00;21.50;;;;;;;;5182370;27;13619;-78
2022/03/03 07:50:47;;;;;;;;;34.75;34.00;;;;;;;;5162418;27;10665;-76
2022/03/03 07:53:13;;;;;;;;;33.50;29.00;;;;;;;;5182396;27;13490;-76
2022/03/03 07:55:41;;;;;;;;;37.75;33.00;;;;;;;;5181033;27;11760;-76
2022/03/03 07:58:10;;;;;;;;;32.00;27.75;;;;;;;;5181406;27;11461;-76
2022/03/03 08:00:36;;;;;;;;;37.50;30.25;;;;;;;;5181335;27;12538;-78
2022/03/03 08:03:05;;;;;;;;;36.50;33.50;;;;;;;;5178533;27;11482;-77
2022/03/03 08:05:31;;;;;;;;;43.50;34.50;;;;;;;;5181700;27;11504;-78
2022/03/03 08:07:56;;;;;;;;;33.00;29.00;;;;;;;;5181123;27;10891;-75
2022/03/03 08:10:24;;;;;;;;;37.25;30.00;;;;;;;;5182117;27;13279;-76
2022/03/03 08:12:53;;;;;;;;;36.00;30.00;;;;;;;;5183222;27;11521;-75
2022/03/03 08:15:19;;;;;;;;;42.75;32.75;;;;;;;;5183434;27;8954;-76
2022/03/03 08:17:48;;;;;;;;;39.50;31.50;;;;;;;;5181770;27;14707;-74
2022/03/03 08:20:13;;;;;;;;;36.75;32.50;;;;;;;;5182750;27;13548;-75
2022/03/03 08:22:39;;;;;;;;;28.25;26.50;;;;;;;;5183175;27;10425;-75
2022/03/03 08:25:06;;;;;;;;;41.25;34.50;;;;;;;;5182637;27;12867;-76
2022/03/03 08:27:32;;;;;;;;;44.75;31.25;;;;;;;;5182476;27;11055;-75
2022/03/03 08:29:58;;;;;;;;;34.25;32.50;;;;;;;;5183044;27;11421;-75
2022/03/03 08:32:27;;;;;;;;;40.75;33.00;;;;;;;;5183480;27;13470;-75
2022/03/03 08:35:10;;;;;;;;;35.50;30.50;;;;;;;;5182394;27;13638;-76
2022/03/03 08:37:40;;;;;;;;;42.00;35.25;;;;;;;;5182229;27;13947;-76
2022/03/03 08:40:11;;;;;;;;;46.50;37.50;;;;;;;;5181282;27;13720;-75
2022/03/03 08:42:37;;;;;;;;;39.67;36.33;;;;;;;;5180857;27;11776;-74
2022/03/03 08:45:05;;;;;;;;;31.67;29.00;;;;;;;;5181178;27;13681;-74
2022/03/03 08:47:31;;;;;;;;;45.33;35.00;;;;;;;;5181045;27;12724;-76
2022/03/03 08:50:01;;;;;;;;;43.00;37.00;;;;;;;;5182113;27;12249;-76
2022/03/03 08:52:27;;;;;;;;;47.00;37.33;;;;;;;;5182288;27;10582;-77
2022/03/03 08:54:52;;;;;;;;;43.67;39.00;;;;;;;;5181777;27;11617;-74
2022/03/03 08:57:17;;;;;;;;;40.33;36.00;;;;;;;;5180902;27;11407;-76
2022/03/03 08:59:43;;;;;;;;;44.33;36.00;;;;;;;;5181046;27;10662;-77
2022/03/03 09:02:10;;;;;;;;;43.33;39.67;;;;;;;;5162374;27;8960;-76
2022/03/03 09:04:35;;;;;;;;;45.67;36.00;;;;;;;;5182280;27;11501;-76
2022/03/03 09:07:00;;;;;;;;;40.00;38.33;;;;;;;;5181487;27;11476;-76
2022/03/03 09:09:25;;;;;;;;;39.67;37.00;;;;;;;;5182272;27;11453;-76
2022/03/03 09:11:51;;;;;;;;;48.33;41.33;;;;;;;;5182502;27;13463;-77
2022/03/03 09:14:16;;;;;;;;;42.67;36.33;;;;;;;;5180998;27;13413;-77
2022/03/03 09:16:41;;;;;;;;;45.33;35.67;;;;;;;;5181481;27;11797;-77
2022/03/03 09:19:07;;;;;;;;;47.67;41.33;;;;;;;;5181272;27;11381;-78
2022/03/03 09:21:32;;;;;;;;;49.00;40.67;;;;;;;;5180342;27;12198;-76
2022/03/03 09:23:58;;;;;;;;;43.67;37.67;;;;;;;;5180976;27;11561;-76
2022/03/03 09:26:23;;;;;;;;;45.00;40.00;;;;;;;;5179913;27;11388;-77
2022/03/03 09:28:48;;;;;;;;;43.00;41.00;;;;;;;;5181173;27;13404;-76
2022/03/03 09:31:14;;;;;;;;;46.00;42.00;;;;;;;;5180413;27;8862;-77
2022/03/03 09:33:39;;;;;;;;;52.00;43.33;;;;;;;;5181005;27;9590;-77
2022/03/03 09:36:04;;;;;;;;;43.33;38.67;;;;;;;;5180627;27;13231;-76
2022/03/03 09:38:30;;;;;;;;;47.33;40.00;;;;;;;;5160107;27;13964;-77
2022/03/03 09:40:55;;;;;;;;;40.67;36.67;;;;;;;;5180609;27;12397;-77
2022/03/03 09:43:21;;;;;;;;;47.33;40.00;;;;;;;;5181144;27;12637;-77
2022/03/03 09:45:47;;;;;;;;;51.00;43.00;;;;;;;;5180768;27;12456;-79
2022/03/03 09:48:12;;;;;;;;;57.00;42.00;;;;;;;;5181098;27;12515;-79
2022/03/03 09:50:39;;;;;;;;;56.00;40.75;;;;;;;;5180789;27;11733;-79
2022/03/03 09:53:06;;;;;;;;;48.25;41.00;;;;;;;;5181673;27;11529;-78
2022/03/03 09:55:31;;;;;;;;;47.00;40.25;;;;;;;;5180959;27;13436;-79
2022/03/03 09:57:57;;;;;;;;;53.75;40.75;;;;;;;;5161416;27;12158;-79
2022/03/03 10:00:22;;;;;;;;;44.50;37.50;;;;;;;;5180529;27;12351;-80
2022/03/03 10:02:54;;;;;;;;;44.00;36.00;;;;;;;;5180576;27;13418;-78
2022/03/03 10:05:29;;;;;;;;;39.75;37.50;;;;;;;;5180873;27;10677;-80
2022/03/03 10:08:01;;;;;;;;;39.75;37.75;;;;;;;;5180495;27;13659;-80
2022/03/03 10:10:26;;;;;;;;;49.50;38.50;;;;;;;;5161859;27;11621;-80
2022/03/03 10:12:53;;;;;;;;;39.00;34.25;;;;;;;;5180289;27;13225;-80
2022/03/03 10:15:19;;;;;;;;;44.25;37.00;;;;;;;;5179640;27;13524;-79
2022/03/03 10:17:45;;;;;;;;;39.75;33.50;;;;;;;;5180722;27;13666;-78
2022/03/03 10:20:11;;;;;;;;;37.50;29.75;;;;;;;;5179923;27;13592;-78
2022/03/03 10:22:47;;;;;;;;;36.25;33.25;;;;;;;;5180224;27;12459;-76
2022/03/03 10:25:14;;;;;;;;;30.25;29.00;;;;;;;;5180331;27;11741;-78
2022/03/03 10:27:39;;;;;;;;;37.50;35.00;;;;;;;;5180720;27;13372;-78
2022/03/03 10:30:09;;;;;;;;;34.75;33.00;;;;;;;;5181132;27;11672;-77
2022/03/03 10:32:38;;;;;;;;;42.25;33.25;;;;;;;;5180015;27;10469;-77
2022/03/03 10:35:14;;;;;;;;;31.75;31.25;;;;;;;;5180777;27;13450;-78
2022/03/03 10:37:39;;;;;;;;;40.75;34.50;;;;;;;;5179571;27;11800;-77
2022/03/03 10:40:09;;;;;;;;;30.25;27.75;;;;;;;;5181247;27;13305;-79
2022/03/03 10:42:36;;;;;;;;;25.50;21.00;;;;;;;;5180523;27;13591;-78
2022/03/03 10:45:07;;;;;;;;;29.25;27.50;;;;;;;;5182738;27;13337;-81
2022/03/03 10:47:32;;;;;;;;;30.75;28.75;;;;;;;;5182120;27;11492;-78
2022/03/03 10:49:59;;;;;;;;;30.50;22.50;;;;;;;;5181268;27;13415;-79
2022/03/03 10:52:29;;;;;;;;;25.25;21.50;;;;;;;;5181747;27;10713;-78
2022/03/03 10:54:58;;;;;;;;;22.00;21.00;;;;;;;;5181616;27;12666;-78
2022/03/03 10:57:38;;;;;;;;;38.00;33.25;;;;;;;;5180637;27;11910;-80
2022/03/03 11:00:09;;;;;;;;;22.25;21.00;;;;;;;;5178352;27;13754;-80
2022/03/03 11:02:35;;;;;;;;;25.00;23.00;;;;;;;;5179751;27;13291;-82
2022/03/03 11:05:01;;;;;;;;;29.50;28.00;;;;;;;;5179580;27;10553;-77
2022/03/03 11:07:26;;;;;;;;;25.00;23.25;;;;;;;;5179275;27;11063;-77
2022/03/03 11:09:52;;;;;;;;;27.75;26.00;;;;;;;;5179445;27;11716;-77
2022/03/03 11:12:19;;;;;;;;;23.50;19.75;;;;;;;;5179348;27;11424;-76
2022/03/03 11:14:45;;;;;;;;;21.25;18.50;;;;;;;;5179186;27;12289;-77
2022/03/03 11:17:10;;;;;;;;;21.00;20.50;;;;;;;;5160034;27;13315;-76
2022/03/03 11:19:35;;;;;;;;;21.00;19.25;;;;;;;;5179496;27;11595;-75
2022/03/03 11:22:01;;;;;;;;;23.50;20.25;;;;;;;;5159724;27;12802;-77
2022/03/03 11:24:27;;;;;;;;;28.00;24.50;;;;;;;;5179321;27;11448;-75
2022/03/03 11:26:52;;;;;;;;;21.50;21.00;;;;;;;;5159963;27;11604;-78
2022/03/03 11:29:20;;;;;;;;;27.00;24.75;;;;;;;;5179360;27;11955;-76
2022/03/03 11:31:58;;;;;;;;;23.00;18.25;;;;;;;;5175314;27;11468;-74
2022/03/03 11:34:43;;;;;;;;;19.25;19.00;;;;;;;;5156884;27;11662;-75
2022/03/03 11:37:24;;;;;;;;;23.75;21.00;;;;;;;;5175482;27;13335;-78
2022/03/03 11:40:03;;;;;;;;;21.25;17.00;;;;;;;;5157160;27;11977;-76
2022/03/03 11:42:35;;;;;;;;;20.00;17.00;;;;;;;;5176216;27;11419;-78
2022/03/03 11:45:01;;;;;;;;;21.50;16.00;;;;;;;;5180709;27;11511;-77
2022/03/03 11:47:28;;;;;;;;;15.00;14.75;;;;;;;;5183916;27;11445;-76
2022/03/03 11:50:05;;;;;;;;;18.50;12.00;;;;;;;;5182909;27;13559;-77
2022/03/03 11:52:32;;;;;;;;;8.25;8.25;;;;;;;;5182386;27;11524;-78
2022/03/03 11:55:02;;;;;;;;;10.75;10.75;;;;;;;;5182787;27;22507;-77
2022/03/03 11:57:28;;;;;;;;;12.50;11.25;;;;;;;;5182613;27;22833;-78
2022/03/03 11:59:54;;;;;;;;;10.75;10.50;;;;;;;;5181960;27;12147;-77
2022/03/03 12:02:26;;;;;;;;;13.25;10.75;;;;;;;;5181984;27;11749;-78
2022/03/03 12:05:10;;;;;;;;;10.25;9.00;;;;;;;;5182114;27;11650;-77
2022/03/03 12:07:35;;;;;;;;;10.00;10.00;;;;;;;;5180626;27;21807;-78
2022/03/03 12:10:11;;;;;;;;;13.00;11.50;;;;;;;;5162898;27;23050;-78
2022/03/03 12:12:36;;;;;;;;;11.50;10.50;;;;;;;;5162297;27;13614;-76
2022/03/03 12:15:03;;;;;;;;;14.50;14.00;;;;;;;;5181457;27;12351;-78
2022/03/03 12:18:08;;;;;;;;;14.75;11.00;;;;;;;;5181813;27;11443;-78
2022/03/03 12:20:34;;;;;;;;;17.25;16.75;;;;;;;;5050040;28;11545;-76
2022/03/03 12:23:03;;;;;;;;;17.00;16.50;;;;;;;;5075811;28;11831;-78
2022/03/03 12:25:46;;;;;;;;;17.00;17.00;;;;;;;;5073822;28;11752;-79
2022/03/03 12:28:15;;;;;;;;;20.00;20.00;;;;;;;;5074210;28;11529;-75
2022/03/03 12:30:44;;;;;;;;;19.50;17.00;;;;;;;;5077912;28;11507;-75
2022/03/03 12:33:18;;;;;;;;;25.00;21.50;;;;;;;;5182489;27;12295;-74
2022/03/03 12:35:45;;;;;;;;;26.75;21.75;;;;;;;;5182966;27;14457;-78
2022/03/03 12:38:11;;;;;;;;;22.75;21.50;;;;;;;;5181420;27;11574;-84
2022/03/03 12:40:36;;;;;;;;;23.00;21.25;;;;;;;;5161987;27;11557;-81
2022/03/03 12:43:02;;;;;;;;;24.00;20.00;;;;;;;;5176137;27;11699;-79
2022/03/03 12:45:29;;;;;;;;;19.00;17.50;;;;;;;;5163648;27;11736;-78
2022/03/03 12:47:55;;;;;;;;;18.25;17.75;;;;;;;;5183313;27;13449;-76
2022/03/03 12:50:21;;;;;;;;;22.25;17.25;;;;;;;;5183049;27;12030;-78
2022/03/03 12:52:55;;;;;;;;;18.25;16.25;;;;;;;;5182645;27;13614;-78
2022/03/03 12:55:25;;;;;;;;;16.00;15.50;;;;;;;;5182834;27;11424;-77
2022/03/03 12:57:51;;;;;;;;;18.50;16.25;;;;;;;;5182878;27;11603;-78
2022/03/03 13:00:16;;;;;;;;;18.50;17.00;;;;;;;;5182227;27;11570;-76
2022/03/03 13:02:54;;;;;;;;;22.50;18.25;;;;;;;;5182723;27;9526;-77
2022/03/03 13:05:28;;;;;;;;;17.50;16.50;;;;;;;;5182520;27;14616;-78
2022/03/03 13:07:53;;;;;;;;;19.00;16.50;;;;;;;;5182468;27;13337;-77
2022/03/03 13:10:21;;;;;;;;;22.75;18.00;;;;;;;;5182436;27;11556;-77
2022/03/03 13:12:48;;;;;;;;;18.00;17.50;;;;;;;;5182555;27;13308;-77
2022/03/03 13:15:14;;;;;;;;;20.25;15.50;;;;;;;;5182946;27;13290;-77
2022/03/03 13:17:55;;;;;;;;;18.50;17.50;;;;;;;;5182819;27;12284;-78
2022/03/03 13:20:20;;;;;;;;;16.50;14.50;;;;;;;;5182912;27;13633;-76
2022/03/03 13:22:46;;;;;;;;;15.50;14.25;;;;;;;;5182641;27;11433;-76
2022/03/03 13:25:18;;;;;;;;;13.50;10.75;;;;;;;;5182144;27;11643;-77
2022/03/03 13:27:47;;;;;;;;;14.75;14.25;;;;;;;;5181981;27;11523;-77
2022/03/03 13:30:13;;;;;;;;;13.75;10.00;;;;;;;;5181660;27;11421;-77
2022/03/03 13:32:45;;;;;;;;;20.00;17.00;;;;;;;;5182181;27;11576;-76
2022/03/03 13:35:11;;;;;;;;;21.50;18.00;;;;;;;;5182562;27;12280;-76
2022/03/03 13:37:36;;;;;;;;;21.25;18.00;;;;;;;;5181302;27;11479;-76
2022/03/03 13:40:15;;;;;;;;;24.25;17.75;;;;;;;;5182568;27;11448;-76
2022/03/03 13:42:41;;;;;;;;;15.75;15.00;;;;;;;;5162994;27;14397;-76
2022/03/03 13:45:07;;;;;;;;;14.25;14.25;;;;;;;;5182033;27;13423;-76
2022/03/03 13:47:41;;;;;;;;;15.75;14.50;;;;;;;;5162924;27;13419;-77
2022/03/03 13:50:08;;;;;;;;;10.25;7.00;;;;;;;;5182072;27;12180;-77
2022/03/03 13:52:35;;;;;;;;;21.75;19.50;;;;;;;;5182596;27;21480;-77
2022/03/03 13:55:09;;;;;;;;;22.00;15.75;;;;;;;;5183112;27;22804;-78
2022/03/03 13:57:39;;;;;;;;;13.75;13.75;;;;;;;;5184250;27;12416;-76
2022/03/03 14:00:12;;;;;;;;;21.25;19.00;;;;;;;;5182653;27;12609;-77
2022/03/03 14:02:46;;;;;;;;;19.25;17.00;;;;;;;;5162390;27;14099;-76
2022/03/03 14:05:12;;;;;;;;;21.50;18.75;;;;;;;;5181654;27;11401;-77
2022/03/03 14:07:39;;;;;;;;;21.25;17.00;;;;;;;;5180653;27;13388;-77
2022/03/03 14:10:06;;;;;;;;;20.00;18.75;;;;;;;;5181877;27;11231;-76
2022/03/03 14:12:32;;;;;;;;;17.00;17.00;;;;;;;;5162414;27;13944;-78
2022/03/03 14:14:57;;;;;;;;;19.25;16.75;;;;;;;;5162202;27;15381;-77
2022/03/03 14:17:22;;;;;;;;;19.75;18.50;;;;;;;;5181057;27;11426;-77
2022/03/03 14:19:48;;;;;;;;;17.00;16.00;;;;;;;;5181339;27;10914;-77